Terminal Aerodrome Forecast
Issued by NWS

Home | Current Version | Previous Version | Text Only | Print | Product List | Glossary On
Versions: 1 2 3 4 5 6 7 8 9 10 11 12 13 14 15 16 17 18 19 20 21 22 23 24 25 26 27 28 29
000
FTUS45 KSLC 242336
TAFEVW
TAF
KEVW 242336Z 2500/2524 26018G26KT P6SM FEW090 SCT120
     FM250100 28013KT P6SM FEW130
     FM250500 VRB05KT P6SM SKC
     FM251800 26018G28KT P6SM FEW090 SCT120=

USA.gov is the U.S. government's official web portal to all federal, state and local government web resources and services.